createdAt,value
2019-01-25T00:01:02.224Z,82.20
2019-01-25T00:03:31.929Z,89.13
2019-01-25T00:06:01.549Z,86.80
2019-01-25T00:08:31.051Z,84.17
2019-01-25T00:11:00.584Z,85.30
2019-01-25T00:13:30.259Z,76.30
2019-01-25T00:16:00.009Z,77.33
2019-01-25T00:18:29.640Z,76.50
2019-01-25T00:20:59.282Z,79.50
2019-01-25T00:23:28.891Z,80.17
2019-01-25T00:25:58.513Z,77.63
2019-01-25T00:28:27.984Z,78.93
2019-01-25T00:30:57.617Z,80.13
2019-01-25T00:33:27.072Z,82.40
2019-01-25T00:35:56.611Z,72.60
2019-01-25T00:38:26.114Z,76.13
2019-01-25T00:40:55.733Z,77.00
2019-01-25T00:43:25.279Z,77.03
2019-01-25T00:45:54.775Z,79.90
2019-01-25T00:48:24.361Z,77.27
2019-01-25T00:50:53.837Z,76.07
2019-01-25T00:53:23.412Z,79.57
2019-01-25T00:55:53.071Z,82.93
2019-01-25T00:58:22.597Z,83.60
2019-01-25T01:00:52.241Z,77.77
2019-01-25T01:03:21.727Z,83.83
2019-01-25T01:05:51.330Z,84.03
2019-01-25T01:08:20.923Z,78.53
2019-01-25T01:10:50.527Z,83.20
2019-01-25T01:13:20.372Z,77.07
2019-01-25T01:15:49.831Z,84.50
2019-01-25T01:18:19.310Z,79.93
2019-01-25T01:20:48.944Z,75.87
2019-01-25T01:23:18.540Z,75.27
2019-01-25T01:25:48.041Z,74.30
2019-01-25T01:28:17.536Z,73.80
2019-01-25T01:30:47.018Z,75.93
2019-01-25T01:33:16.562Z,74.43
2019-01-25T01:35:46.147Z,80.33
2019-01-25T01:38:15.685Z,82.80
2019-01-25T01:40:45.137Z,69.63
2019-01-25T01:43:14.604Z,81.27
2019-01-25T01:45:44.207Z,76.73
2019-01-25T01:48:13.721Z,78.30
2019-01-25T01:50:43.298Z,74.70
2019-01-25T01:53:12.786Z,72.07
2019-01-25T01:55:42.377Z,77.40
2019-01-25T01:58:11.854Z,67.67
2019-01-25T02:00:41.422Z,69.10
2019-01-25T02:03:11.055Z,80.57
2019-01-25T02:05:40.746Z,69.00
2019-01-25T02:08:10.365Z,75.60
2019-01-25T02:10:39.992Z,72.97
2019-01-25T02:13:09.498Z,81.97
2019-01-25T02:15:38.978Z,77.33
2019-01-25T02:18:08.628Z,81.80
2019-01-25T02:20:38.186Z,77.53
2019-01-25T02:23:07.819Z,76.83
2019-01-25T02:25:37.394Z,75.33
2019-01-25T02:28:06.942Z,75.43
2019-01-25T02:30:36.498Z,70.93
2019-01-25T02:33:06.120Z,70.70
2019-01-25T02:35:35.764Z,62.00
2019-01-25T02:38:05.345Z,67.70
2019-01-25T02:40:39.033Z,70.73
2019-01-25T02:43:06.176Z,73.63
2019-01-25T02:45:35.651Z,80.30
2019-01-25T02:48:05.383Z,83.17
2019-01-25T02:50:34.891Z,79.50
2019-01-25T02:53:04.616Z,73.93
2019-01-25T02:55:34.098Z,76.40
2019-01-25T02:58:03.585Z,73.97
2019-01-25T03:00:33.164Z,73.10
2019-01-25T03:03:02.758Z,81.33
2019-01-25T03:05:32.334Z,75.93
2019-01-25T03:08:01.947Z,78.13
2019-01-25T03:10:31.627Z,79.07
2019-01-25T03:13:01.114Z,66.10
2019-01-25T03:15:30.646Z,73.17
2019-01-25T03:18:00.100Z,77.53
2019-01-25T03:20:29.746Z,68.90
2019-01-25T03:22:59.223Z,74.97
2019-01-25T03:25:28.957Z,75.17
2019-01-25T03:27:58.466Z,73.83
2019-01-25T03:30:28.089Z,77.47
2019-01-25T03:32:57.761Z,76.47
2019-01-25T03:35:27.776Z,83.63
2019-01-25T03:37:57.300Z,81.27
2019-01-25T03:40:28.281Z,75.23
2019-01-25T03:42:57.989Z,80.70
2019-01-25T03:45:28.293Z,82.53
2019-01-25T03:47:57.987Z,75.30
2019-01-25T03:50:30.170Z,83.30
2019-01-25T03:52:59.713Z,75.37
2019-01-25T03:55:29.423Z,76.30
2019-01-25T03:57:58.973Z,82.83
2019-01-25T04:00:30.476Z,78.30
2019-01-25T04:03:00.175Z,61.07
2019-01-25T04:05:29.817Z,68.87
2019-01-25T04:07:59.423Z,72.63
2019-01-25T04:10:29.709Z,80.00
2019-01-25T04:12:59.335Z,76.87
2019-01-25T04:15:34.033Z,64.47
2019-01-25T04:18:03.826Z,74.53
2019-01-25T04:20:33.344Z,79.33
2019-01-25T04:23:02.849Z,72.63
2019-01-25T04:25:32.524Z,77.60
2019-01-25T04:28:02.056Z,83.53
2019-01-25T04:30:33.006Z,63.33
2019-01-25T04:33:02.746Z,72.10
2019-01-25T04:35:32.360Z,74.07
2019-01-25T04:38:01.779Z,71.00
2019-01-25T04:40:31.347Z,72.70
2019-01-25T04:43:00.861Z,81.37
2019-01-25T04:45:30.436Z,78.43
2019-01-25T04:47:59.991Z,83.00
2019-01-25T04:50:29.697Z,83.97
2019-01-25T04:52:59.145Z,68.77
2019-01-25T04:55:31.645Z,84.23
2019-01-25T04:58:13.837Z,86.20
2019-01-25T05:00:43.563Z,83.23
2019-01-25T05:03:14.251Z,82.40
2019-01-25T05:05:43.937Z,81.20
2019-01-25T05:08:17.083Z,88.60
2019-01-25T05:10:46.675Z,86.77
2019-01-25T05:13:16.292Z,91.27
2019-01-25T05:15:46.011Z,78.80
2019-01-25T05:18:15.530Z,80.60
2019-01-25T05:20:45.113Z,78.80
2019-01-25T05:23:14.588Z,63.73
2019-01-25T05:25:44.113Z,80.60
2019-01-25T05:28:17.988Z,78.77
2019-01-25T05:31:00.944Z,74.97
2019-01-25T05:33:30.470Z,81.13
2019-01-25T05:35:59.953Z,81.07
2019-01-25T05:38:29.416Z,89.23
2019-01-25T05:40:58.982Z,86.17
2019-01-25T05:43:31.425Z,75.33
2019-01-25T05:46:00.872Z,71.67
2019-01-25T05:48:30.532Z,79.50
2019-01-25T05:51:03.935Z,87.20
2019-01-25T05:53:33.390Z,80.50
2019-01-25T05:56:02.876Z,87.30
2019-01-25T05:58:32.336Z,80.60
2019-01-25T06:01:01.791Z,80.50
2019-01-25T06:03:31.276Z,80.97
2019-01-25T06:06:01.549Z,76.97
2019-01-25T06:08:32.051Z,88.63
2019-01-25T06:11:04.938Z,89.67
2019-01-25T06:13:34.396Z,87.57
2019-01-25T06:16:04.670Z,85.17
2019-01-25T06:18:34.181Z,78.33
2019-01-25T06:21:04.357Z,76.97
2019-01-25T06:23:33.874Z,86.73
2019-01-25T06:26:03.536Z,84.13
2019-01-25T06:28:32.982Z,70.27
2019-01-25T06:31:02.567Z,81.03
2019-01-25T06:33:32.024Z,77.87
2019-01-25T06:36:01.651Z,75.90
2019-01-25T06:38:31.086Z,88.23
2019-01-25T06:41:00.703Z,82.50
2019-01-25T06:43:30.299Z,79.77
2019-01-25T06:45:59.801Z,87.80
2019-01-25T06:48:29.347Z,91.97
2019-01-25T06:50:58.863Z,89.00
2019-01-25T06:53:28.395Z,90.03
2019-01-25T06:55:57.871Z,82.93
2019-01-25T06:58:28.951Z,85.83
2019-01-25T07:01:06.144Z,83.10
2019-01-25T07:03:35.820Z,86.27
2019-01-25T07:06:05.710Z,81.13
2019-01-25T07:08:35.172Z,83.57
2019-01-25T07:11:04.952Z,94.27
2019-01-25T07:13:34.394Z,82.40
2019-01-25T07:16:04.088Z,76.37
2019-01-25T07:18:33.570Z,71.70
2019-01-25T07:21:03.017Z,78.37
2019-01-25T07:23:32.515Z,81.87
2019-01-25T07:26:01.979Z,81.43
2019-01-25T07:28:31.563Z,75.97
2019-01-25T07:31:01.195Z,81.37
2019-01-25T07:33:30.728Z,85.03
2019-01-25T07:36:00.394Z,81.93
2019-01-25T07:38:29.833Z,87.27
2019-01-25T07:40:59.373Z,85.63
2019-01-25T07:43:28.861Z,73.30
2019-01-25T07:45:58.397Z,82.10
2019-01-25T07:48:27.937Z,88.60
2019-01-25T07:50:57.477Z,88.97
2019-01-25T07:53:27.007Z,86.33
2019-01-25T07:55:56.532Z,92.30
2019-01-25T07:58:25.992Z,85.67
2019-01-25T08:00:56.405Z,93.80
2019-01-25T08:03:25.947Z,87.23
2019-01-25T08:05:55.498Z,84.03
2019-01-25T08:08:25.080Z,84.90
2019-01-25T08:10:54.619Z,75.07
2019-01-25T08:13:24.088Z,80.00
2019-01-25T08:15:53.725Z,90.10
2019-01-25T08:18:23.334Z,88.13
2019-01-25T08:20:52.937Z,85.20
2019-01-25T08:23:22.433Z,84.67
2019-01-25T08:25:52.001Z,84.90
2019-01-25T08:28:21.445Z,86.80
2019-01-25T08:30:51.011Z,82.47
2019-01-25T08:33:20.488Z,80.57
2019-01-25T08:35:50.081Z,90.60
2019-01-25T08:38:19.554Z,83.73
2019-01-25T08:40:49.115Z,84.83
2019-01-25T08:43:18.577Z,88.00
2019-01-25T08:45:49.435Z,85.53
2019-01-25T08:48:19.315Z,84.03
2019-01-25T08:50:48.988Z,87.87
2019-01-25T08:53:18.752Z,81.83
2019-01-25T08:55:48.175Z,88.70
2019-01-25T08:58:17.581Z,89.83
2019-01-25T09:00:47.208Z,90.90
2019-01-25T09:03:16.754Z,86.27
2019-01-25T09:05:46.358Z,90.43
2019-01-25T09:08:15.862Z,94.33
2019-01-25T09:10:45.374Z,92.10
2019-01-25T09:13:14.899Z,93.60
2019-01-25T09:15:44.520Z,99.43
2019-01-25T09:18:14.073Z,97.63
2019-01-25T09:20:43.679Z,99.70
2019-01-25T09:23:13.147Z,88.73
2019-01-25T09:25:42.671Z,99.57
2019-01-25T09:28:12.144Z,91.47
2019-01-25T09:30:41.775Z,98.57
2019-01-25T09:33:11.383Z,96.70
2019-01-25T09:35:41.010Z,100.03
2019-01-25T09:38:10.630Z,97.63
2019-01-25T09:40:40.218Z,91.03
2019-01-25T09:43:09.664Z,76.23
2019-01-25T09:45:39.246Z,81.17
2019-01-25T09:48:08.768Z,71.40
2019-01-25T09:50:38.327Z,70.23
2019-01-25T09:53:10.903Z,64.47
2019-01-25T09:55:40.397Z,58.67
2019-01-25T09:58:14.939Z,56.87
2019-01-25T10:01:01.663Z,54.73
2019-01-25T10:03:31.299Z,53.50
2019-01-25T10:06:00.859Z,48.63
2019-01-25T10:08:30.280Z,51.13
2019-01-25T10:10:59.743Z,52.80
2019-01-25T10:13:29.452Z,39.00
2019-01-25T10:15:59.080Z,28.80
2019-01-25T10:18:28.646Z,35.73
2019-01-25T10:20:58.102Z,35.20
2019-01-25T10:23:27.574Z,34.80
2019-01-25T10:25:57.071Z,42.70
2019-01-25T10:28:26.507Z,39.97
2019-01-25T10:30:56.030Z,39.90
2019-01-25T10:33:25.496Z,41.87
2019-01-25T10:35:55.020Z,42.83
2019-01-25T10:38:24.528Z,44.57
2019-01-25T10:40:53.998Z,45.60
2019-01-25T10:43:23.561Z,40.30
2019-01-25T10:45:53.223Z,38.50
2019-01-25T10:48:22.742Z,45.40
2019-01-25T10:50:52.261Z,43.47
2019-01-25T10:53:21.743Z,43.30
2019-01-25T10:55:51.347Z,44.23
2019-01-25T10:58:20.780Z,45.73
2019-01-25T11:00:51.335Z,45.00
2019-01-25T11:03:21.051Z,44.53
2019-01-25T11:05:50.526Z,47.50
2019-01-25T11:08:20.018Z,44.67
2019-01-25T11:10:49.583Z,44.10
2019-01-25T11:13:19.144Z,43.03
2019-01-25T11:15:48.605Z,44.30
2019-01-25T11:18:18.061Z,41.43
2019-01-25T11:20:47.566Z,42.80
2019-01-25T11:23:17.017Z,38.13
2019-01-25T11:25:46.565Z,48.53
2019-01-25T11:28:16.030Z,44.17
2019-01-25T11:30:45.534Z,43.73
2019-01-25T11:33:15.088Z,43.43
2019-01-25T11:35:44.554Z,40.17
2019-01-25T11:38:14.013Z,38.50
2019-01-25T11:40:44.973Z,41.00
2019-01-25T11:43:14.457Z,40.97
2019-01-25T11:45:43.998Z,40.57
2019-01-25T11:48:14.458Z,41.63
2019-01-25T11:50:44.134Z,43.23
2019-01-25T11:53:13.674Z,42.83
2019-01-25T11:55:43.271Z,42.30
2019-01-25T11:58:12.733Z,40.17
2019-01-25T12:00:43.820Z,44.97
2019-01-25T12:03:13.792Z,39.10
2019-01-25T12:05:43.591Z,36.30
2019-01-25T12:08:13.472Z,39.50
2019-01-25T12:10:43.006Z,39.97
2019-01-25T12:13:16.301Z,35.50
2019-01-25T12:15:43.730Z,36.43
2019-01-25T12:18:13.329Z,37.93
2019-01-25T12:20:42.942Z,36.13
2019-01-25T12:23:12.487Z,38.97
2019-01-25T12:25:41.968Z,36.50
2019-01-25T12:28:11.497Z,37.50
2019-01-25T12:30:41.525Z,37.30
2019-01-25T12:33:11.119Z,36.50
2019-01-25T12:35:41.707Z,36.07
2019-01-25T12:38:11.325Z,35.30
2019-01-25T12:40:42.326Z,32.13
2019-01-25T12:43:12.335Z,34.17
2019-01-25T12:45:41.861Z,34.17
2019-01-25T12:48:11.549Z,33.53
2019-01-25T12:50:51.536Z,32.73
2019-01-25T12:53:22.148Z,33.60
2019-01-25T12:55:51.869Z,34.30
2019-01-25T12:58:24.544Z,37.33
2019-01-25T13:00:54.162Z,31.43
2019-01-25T13:03:23.664Z,34.73
2019-01-25T13:05:53.429Z,33.43
2019-01-25T13:08:22.886Z,31.30
2019-01-25T13:10:52.436Z,33.67
2019-01-25T13:13:21.895Z,28.43
2019-01-25T13:15:51.557Z,34.70
2019-01-25T13:18:21.014Z,32.23
2019-01-25T13:20:50.518Z,32.33
2019-01-25T13:23:20.005Z,30.47
2019-01-25T13:25:49.634Z,30.90
2019-01-25T13:28:19.324Z,30.13
2019-01-25T13:30:49.082Z,30.50
2019-01-25T13:33:18.821Z,30.23
2019-01-25T13:35:48.548Z,31.13
2019-01-25T13:38:18.081Z,27.97
2019-01-25T13:40:47.789Z,29.00
2019-01-25T13:43:17.508Z,29.73
2019-01-25T13:45:46.994Z,30.43
2019-01-25T13:48:16.626Z,29.97
2019-01-25T13:50:46.264Z,28.03
2019-01-25T13:53:15.869Z,26.90
2019-01-25T13:55:45.385Z,28.47
2019-01-25T13:58:14.957Z,30.63
2019-01-25T14:00:44.448Z,26.13
2019-01-25T14:03:14.092Z,27.77
2019-01-25T14:05:43.710Z,29.43
2019-01-25T14:08:13.278Z,28.67
2019-01-25T14:10:42.932Z,28.33
2019-01-25T14:13:12.414Z,26.53
2019-01-25T14:15:41.862Z,28.00
2019-01-25T14:18:11.326Z,27.67
2019-01-25T14:20:40.840Z,29.63
2019-01-25T14:23:10.319Z,27.20
2019-01-25T14:25:39.853Z,27.47
2019-01-25T14:28:09.388Z,29.27
2019-01-25T14:30:41.274Z,27.77
2019-01-25T14:33:10.930Z,28.23
2019-01-25T14:35:40.636Z,32.20
2019-01-25T14:38:10.400Z,30.47
2019-01-25T14:40:52.142Z,32.83
2019-01-25T14:43:21.574Z,27.80
2019-01-25T14:45:50.990Z,30.40
2019-01-25T14:48:20.564Z,27.60
2019-01-25T14:50:49.971Z,26.67
2019-01-25T14:53:19.495Z,30.40
2019-01-25T14:55:49.073Z,32.37
2019-01-25T14:58:18.517Z,30.37
2019-01-25T15:00:48.042Z,30.50
2019-01-25T15:03:17.508Z,29.47
2019-01-25T15:05:46.938Z,32.73
2019-01-25T15:08:16.459Z,30.43
2019-01-25T15:10:46.112Z,31.87
2019-01-25T15:13:15.546Z,30.97
2019-01-25T15:15:45.047Z,30.87
2019-01-25T15:18:14.655Z,30.40
2019-01-25T15:20:44.098Z,31.67
2019-01-25T15:23:13.550Z,32.37
2019-01-25T15:25:43.096Z,32.33
2019-01-25T15:28:12.534Z,36.30
2019-01-25T15:30:42.061Z,33.47
2019-01-25T15:33:12.614Z,33.30
2019-01-25T15:35:42.181Z,36.60
2019-01-25T15:38:11.681Z,35.20
2019-01-25T15:40:41.483Z,31.43
2019-01-25T15:43:11.013Z,34.87
2019-01-25T15:45:40.655Z,36.97
2019-01-25T15:48:10.258Z,34.90
2019-01-25T15:50:39.730Z,33.63
2019-01-25T15:53:09.286Z,36.47
2019-01-25T15:55:39.003Z,38.93
2019-01-25T15:58:08.602Z,36.73
2019-01-25T16:00:38.138Z,41.53
2019-01-25T16:03:07.592Z,41.30
2019-01-25T16:05:37.147Z,40.50
2019-01-25T16:08:06.687Z,40.77
2019-01-25T16:10:36.144Z,42.53
2019-01-25T16:13:05.701Z,38.63
2019-01-25T16:15:35.472Z,39.20
2019-01-25T16:18:05.239Z,40.53
2019-01-25T16:20:34.871Z,39.67
2019-01-25T16:23:04.693Z,41.07
2019-01-25T16:25:34.867Z,39.17
2019-01-25T16:28:04.751Z,45.37
2019-01-25T16:30:36.607Z,39.30
2019-01-25T16:33:06.519Z,39.77
2019-01-25T16:35:36.139Z,41.17
2019-01-25T16:38:06.395Z,38.03
2019-01-25T16:40:36.062Z,39.23
2019-01-25T16:43:06.176Z,39.57
2019-01-25T16:45:39.613Z,43.67
2019-01-25T16:48:09.680Z,42.47
2019-01-25T16:50:39.921Z,39.60
2019-01-25T16:53:10.680Z,40.03
2019-01-25T16:55:40.117Z,41.87
2019-01-25T16:58:09.773Z,41.07
2019-01-25T17:00:44.282Z,39.60
2019-01-25T17:03:13.723Z,40.93
2019-01-25T17:05:43.594Z,39.07
2019-01-25T17:08:13.115Z,39.17
2019-01-25T17:10:42.759Z,36.67
2019-01-25T17:13:12.428Z,36.23
2019-01-25T17:15:42.038Z,36.43
2019-01-25T17:18:11.788Z,37.43
2019-01-25T17:20:41.552Z,37.47
2019-01-25T17:23:11.080Z,37.37
2019-01-25T17:25:40.577Z,37.63
2019-01-25T17:28:10.489Z,34.97
2019-01-25T17:30:40.275Z,36.30
2019-01-25T17:33:09.897Z,31.53
2019-01-25T17:35:39.487Z,29.80
2019-01-25T17:38:09.095Z,33.30
2019-01-25T17:40:59.412Z,33.77
2019-01-25T17:43:28.854Z,34.63
2019-01-25T17:45:58.413Z,32.10
2019-01-25T17:48:27.956Z,30.97
2019-01-25T17:50:57.552Z,31.37
2019-01-25T17:53:27.006Z,32.47
2019-01-25T17:55:56.795Z,29.80
2019-01-25T17:58:29.849Z,30.20
2019-01-25T18:00:59.404Z,30.13
2019-01-25T18:03:28.884Z,32.43
2019-01-25T18:05:59.590Z,32.07
2019-01-25T18:08:29.000Z,29.20
2019-01-25T18:10:58.621Z,32.77
2019-01-25T18:13:28.725Z,32.27
2019-01-25T18:15:58.473Z,31.77
2019-01-25T18:18:27.941Z,31.70
2019-01-25T18:20:57.564Z,31.13
2019-01-25T18:23:27.125Z,29.07
2019-01-25T18:25:57.532Z,29.07
2019-01-25T18:28:34.286Z,30.77
2019-01-25T18:31:13.921Z,32.33
2019-01-25T18:33:43.470Z,29.63
2019-01-25T18:36:13.363Z,26.10
2019-01-25T18:38:42.845Z,31.47
2019-01-25T18:41:12.604Z,30.07
2019-01-25T18:43:42.293Z,27.70
2019-01-25T18:46:11.992Z,27.30
2019-01-25T18:48:41.599Z,30.73
2019-01-25T18:51:11.281Z,25.77
2019-01-25T18:53:40.919Z,27.13
2019-01-25T18:56:11.241Z,25.43
2019-01-25T18:58:40.899Z,26.80
2019-01-25T19:01:10.629Z,27.07
2019-01-25T19:03:40.268Z,28.60
2019-01-25T19:06:10.099Z,24.83
2019-01-25T19:08:39.724Z,29.27
2019-01-25T19:11:09.541Z,29.47
2019-01-25T19:13:39.149Z,28.60
2019-01-25T19:16:08.937Z,25.67
2019-01-25T19:18:38.562Z,29.40
2019-01-25T19:21:08.347Z,25.83
2019-01-25T19:23:37.984Z,27.57
2019-01-25T19:26:07.693Z,29.10
2019-01-25T19:28:37.289Z,25.97
2019-01-25T19:31:06.950Z,27.40
2019-01-25T19:33:36.709Z,28.13
2019-01-25T19:36:06.735Z,25.30
2019-01-25T19:38:36.199Z,25.47
2019-01-25T19:41:05.886Z,25.10
2019-01-25T19:43:35.526Z,26.23
2019-01-25T19:46:05.428Z,26.30
2019-01-25T19:48:35.052Z,22.20
2019-01-25T19:51:05.103Z,22.70
2019-01-25T19:53:34.642Z,24.00
2019-01-25T19:56:04.725Z,23.87
2019-01-25T19:58:34.410Z,24.33
2019-01-25T20:01:04.009Z,24.93
2019-01-25T20:03:33.695Z,24.93
2019-01-25T20:06:03.651Z,24.70
2019-01-25T20:08:33.249Z,24.83
2019-01-25T20:11:02.733Z,22.73
2019-01-25T20:13:32.199Z,26.27
2019-01-25T20:16:01.849Z,23.57
2019-01-25T20:18:31.379Z,24.07
2019-01-25T20:21:00.921Z,23.53
2019-01-25T20:23:30.480Z,21.70
2019-01-25T20:26:00.056Z,21.13
2019-01-25T20:28:29.542Z,22.10
2019-01-25T20:30:59.154Z,20.70
2019-01-25T20:33:28.643Z,22.07
2019-01-25T20:35:58.280Z,21.57
2019-01-25T20:38:27.759Z,23.93
2019-01-25T20:40:57.197Z,18.13
2019-01-25T20:43:26.921Z,20.73
2019-01-25T20:45:56.617Z,19.33
2019-01-25T20:48:26.203Z,21.33
2019-01-25T20:50:55.789Z,18.93
2019-01-25T20:53:25.491Z,19.50
2019-01-25T20:55:55.073Z,19.70
2019-01-25T20:58:24.683Z,21.40
2019-01-25T21:00:54.348Z,19.13
2019-01-25T21:03:23.935Z,20.80
2019-01-25T21:05:53.437Z,20.17
2019-01-25T21:08:23.206Z,21.23
2019-01-25T21:10:52.736Z,21.17
2019-01-25T21:13:22.345Z,21.90
2019-01-25T21:15:51.984Z,22.17
2019-01-25T21:18:21.546Z,21.57
2019-01-25T21:20:51.421Z,19.83
2019-01-25T21:23:21.201Z,22.83
2019-01-25T21:25:50.938Z,22.97
2019-01-25T21:28:20.618Z,23.63
2019-01-25T21:30:50.352Z,24.27
2019-01-25T21:33:19.872Z,21.93
2019-01-25T21:35:49.420Z,21.17
2019-01-25T21:38:19.216Z,21.43
2019-01-25T21:40:50.321Z,24.33
2019-01-25T21:43:20.075Z,22.27
2019-01-25T21:45:49.846Z,23.60
2019-01-25T21:48:19.460Z,21.87
2019-01-25T21:50:49.261Z,22.63
2019-01-25T21:53:18.980Z,24.30
2019-01-25T21:55:48.616Z,24.13
2019-01-25T21:58:18.394Z,22.73
2019-01-25T22:00:48.056Z,23.60
2019-01-25T22:03:17.674Z,27.73
2019-01-25T22:05:47.325Z,25.50
2019-01-25T22:08:16.954Z,25.80
2019-01-25T22:10:46.660Z,23.70
2019-01-25T22:13:16.301Z,26.10
2019-01-25T22:15:50.727Z,24.60
2019-01-25T22:18:17.429Z,26.67
2019-01-25T22:20:46.987Z,25.43
2019-01-25T22:23:17.073Z,24.33
2019-01-25T22:25:46.714Z,26.93
2019-01-25T22:28:16.155Z,26.93
2019-01-25T22:30:45.616Z,29.20
2019-01-25T22:33:15.088Z,28.00
2019-01-25T22:35:44.942Z,27.53
2019-01-25T22:38:14.676Z,27.93
2019-01-25T22:40:44.269Z,27.53
2019-01-25T22:43:13.875Z,28.80
2019-01-25T22:45:43.444Z,29.57
2019-01-25T22:48:13.181Z,31.00
2019-01-25T22:50:42.982Z,30.73
2019-01-25T22:53:12.714Z,29.77
2019-01-25T22:55:42.209Z,31.80
2019-01-25T22:58:11.759Z,33.50
2019-01-25T23:01:00.773Z,34.73
2019-01-25T23:04:02.059Z,35.87
2019-01-25T23:06:41.821Z,31.53
2019-01-25T23:09:18.789Z,35.13
2019-01-25T23:11:48.693Z,37.57
2019-01-25T23:14:18.393Z,38.43
2019-01-25T23:16:48.177Z,40.97
2019-01-25T23:19:17.878Z,36.63
2019-01-25T23:21:47.537Z,39.57
2019-01-25T23:24:17.506Z,41.97
2019-01-25T23:26:47.250Z,40.77
2019-01-25T23:29:16.983Z,38.87
2019-01-25T23:31:46.764Z,44.43
2019-01-25T23:34:16.335Z,43.40
2019-01-25T23:36:45.894Z,46.30
2019-01-25T23:39:15.557Z,42.37
2019-01-25T23:41:45.356Z,38.67
2019-01-25T23:44:14.933Z,43.03
2019-01-25T23:46:44.648Z,45.97
2019-01-25T23:49:14.371Z,46.90
2019-01-25T23:51:43.945Z,47.53
2019-01-25T23:54:13.518Z,46.60
2019-01-25T23:56:43.183Z,50.50
2019-01-25T23:59:12.623Z,49.10
